sensor_id;sensor_type;location;lat;lon;timestamp;P1;durP1;ratioP1;P2;durP2;ratioP2
13764;SDS011;6953;48.810;9.204;2023-11-19T00:00:15;0.50;;;0.50;;
13764;SDS011;6953;48.810;9.204;2023-11-19T00:02:41;0.50;;;0.50;;
13764;SDS011;6953;48.810;9.204;2023-11-19T00:05:07;0.50;;;0.50;;
13764;SDS011;6953;48.810;9.204;2023-11-19T00:07:36;0.57;;;0.57;;
13764;SDS011;6953;48.810;9.204;2023-11-19T00:10:06;0.50;;;0.50;;
13764;SDS011;6953;48.810;9.204;2023-11-19T00:12:40;0.52;;;0.52;;
13764;SDS011;6953;48.810;9.204;2023-11-19T00:15:07;0.55;;;0.55;;
13764;SDS011;6953;48.810;9.204;2023-11-19T00:17:39;0.50;;;0.50;;
13764;SDS011;6953;48.810;9.204;2023-11-19T00:20:05;0.52;;;0.52;;
13764;SDS011;6953;48.810;9.204;2023-11-19T00:22:31;0.60;;;0.60;;
13764;SDS011;6953;48.810;9.204;2023-11-19T00:24:57;0.60;;;0.60;;
13764;SDS011;6953;48.810;9.204;2023-11-19T00:27:23;0.55;;;0.55;;
13764;SDS011;6953;48.810;9.204;2023-11-19T00:29:48;0.60;;;0.60;;
13764;SDS011;6953;48.810;9.204;2023-11-19T00:32:14;0.57;;;0.57;;
13764;SDS011;6953;48.810;9.204;2023-11-19T00:34:40;0.50;;;0.50;;
13764;SDS011;6953;48.810;9.204;2023-11-19T00:37:05;0.50;;;0.50;;
13764;SDS011;6953;48.810;9.204;2023-11-19T00:39:31;0.60;;;0.60;;
13764;SDS011;6953;48.810;9.204;2023-11-19T00:41:57;0.60;;;0.60;;
13764;SDS011;6953;48.810;9.204;2023-11-19T00:44:22;0.60;;;0.60;;
13764;SDS011;6953;48.810;9.204;2023-11-19T00:46:48;0.50;;;0.50;;
13764;SDS011;6953;48.810;9.204;2023-11-19T00:49:13;0.50;;;0.50;;
13764;SDS011;6953;48.810;9.204;2023-11-19T00:51:38;0.50;;;0.50;;
13764;SDS011;6953;48.810;9.204;2023-11-19T00:54:04;0.50;;;0.50;;
13764;SDS011;6953;48.810;9.204;2023-11-19T00:56:29;0.60;;;0.60;;
13764;SDS011;6953;48.810;9.204;2023-11-19T00:58:54;0.60;;;0.60;;
13764;SDS011;6953;48.810;9.204;2023-11-19T01:01:20;0.50;;;0.50;;
13764;SDS011;6953;48.810;9.204;2023-11-19T01:03:46;0.60;;;0.60;;
13764;SDS011;6953;48.810;9.204;2023-11-19T01:06:11;0.50;;;0.50;;
13764;SDS011;6953;48.810;9.204;2023-11-19T01:08:37;0.43;;;0.43;;
13764;SDS011;6953;48.810;9.204;2023-11-19T01:11:02;0.50;;;0.50;;
13764;SDS011;6953;48.810;9.204;2023-11-19T01:13:28;0.50;;;0.50;;
13764;SDS011;6953;48.810;9.204;2023-11-19T01:15:53;0.50;;;0.50;;
13764;SDS011;6953;48.810;9.204;2023-11-19T01:18:18;0.50;;;0.50;;
13764;SDS011;6953;48.810;9.204;2023-11-19T01:20:43;0.40;;;0.40;;
13764;SDS011;6953;48.810;9.204;2023-11-19T01:23:09;0.43;;;0.43;;
13764;SDS011;6953;48.810;9.204;2023-11-19T01:25:34;0.47;;;0.47;;
13764;SDS011;6953;48.810;9.204;2023-11-19T01:28:00;0.60;;;0.60;;
13764;SDS011;6953;48.810;9.204;2023-11-19T01:30:27;0.60;;;0.60;;
13764;SDS011;6953;48.810;9.204;2023-11-19T01:32:53;0.50;;;0.50;;
13764;SDS011;6953;48.810;9.204;2023-11-19T01:35:18;0.50;;;0.50;;
13764;SDS011;6953;48.810;9.204;2023-11-19T01:37:44;0.50;;;0.50;;
13764;SDS011;6953;48.810;9.204;2023-11-19T01:40:09;0.47;;;0.47;;
13764;SDS011;6953;48.810;9.204;2023-11-19T01:42:39;0.50;;;0.50;;
13764;SDS011;6953;48.810;9.204;2023-11-19T01:45:06;0.50;;;0.50;;
13764;SDS011;6953;48.810;9.204;2023-11-19T01:47:33;0.60;;;0.60;;
13764;SDS011;6953;48.810;9.204;2023-11-19T01:49:59;0.57;;;0.57;;
13764;SDS011;6953;48.810;9.204;2023-11-19T01:52:26;0.50;;;0.50;;
13764;SDS011;6953;48.810;9.204;2023-11-19T01:54:52;0.60;;;0.60;;
13764;SDS011;6953;48.810;9.204;2023-11-19T01:57:19;0.50;;;0.50;;
13764;SDS011;6953;48.810;9.204;2023-11-19T01:59:48;0.50;;;0.50;;
13764;SDS011;6953;48.810;9.204;2023-11-19T02:02:15;0.55;;;0.55;;
13764;SDS011;6953;48.810;9.204;2023-11-19T02:04:42;0.50;;;0.50;;
13764;SDS011;6953;48.810;9.204;2023-11-19T02:07:08;0.60;;;0.60;;
13764;SDS011;6953;48.810;9.204;2023-11-19T02:09:33;0.50;;;0.50;;
13764;SDS011;6953;48.810;9.204;2023-11-19T02:11:59;0.50;;;0.50;;
13764;SDS011;6953;48.810;9.204;2023-11-19T02:14:25;0.50;;;0.50;;
13764;SDS011;6953;48.810;9.204;2023-11-19T02:16:51;0.50;;;0.50;;
13764;SDS011;6953;48.810;9.204;2023-11-19T02:19:19;0.50;;;0.50;;
13764;SDS011;6953;48.810;9.204;2023-11-19T02:21:44;0.50;;;0.50;;
13764;SDS011;6953;48.810;9.204;2023-11-19T02:24:10;0.50;;;0.50;;
13764;SDS011;6953;48.810;9.204;2023-11-19T02:29:44;0.60;;;0.60;;
13764;SDS011;6953;48.810;9.204;2023-11-19T02:32:09;0.52;;;0.52;;
13764;SDS011;6953;48.810;9.204;2023-11-19T02:34:34;0.50;;;0.50;;
13764;SDS011;6953;48.810;9.204;2023-11-19T02:36:59;0.43;;;0.43;;
13764;SDS011;6953;48.810;9.204;2023-11-19T02:39:25;0.50;;;0.50;;
13764;SDS011;6953;48.810;9.204;2023-11-19T02:41:51;0.40;;;0.40;;
13764;SDS011;6953;48.810;9.204;2023-11-19T02:44:18;0.60;;;0.60;;
13764;SDS011;6953;48.810;9.204;2023-11-19T02:46:43;0.50;;;0.50;;
13764;SDS011;6953;48.810;9.204;2023-11-19T02:49:08;0.50;;;0.50;;
13764;SDS011;6953;48.810;9.204;2023-11-19T02:51:33;0.50;;;0.50;;
13764;SDS011;6953;48.810;9.204;2023-11-19T02:53:59;0.50;;;0.50;;
13764;SDS011;6953;48.810;9.204;2023-11-19T02:56:25;0.50;;;0.50;;
13764;SDS011;6953;48.810;9.204;2023-11-19T02:58:51;0.50;;;0.50;;
13764;SDS011;6953;48.810;9.204;2023-11-19T03:01:23;0.47;;;0.47;;
13764;SDS011;6953;48.810;9.204;2023-11-19T03:03:54;0.32;;;0.32;;
13764;SDS011;6953;48.810;9.204;2023-11-19T03:06:22;0.40;;;0.40;;
13764;SDS011;6953;48.810;9.204;2023-11-19T03:08:48;0.50;;;0.50;;
13764;SDS011;6953;48.810;9.204;2023-11-19T03:11:13;0.40;;;0.40;;
13764;SDS011;6953;48.810;9.204;2023-11-19T03:13:39;0.50;;;0.50;;
13764;SDS011;6953;48.810;9.204;2023-11-19T03:16:04;0.50;;;0.50;;
13764;SDS011;6953;48.810;9.204;2023-11-19T03:18:30;0.47;;;0.47;;
13764;SDS011;6953;48.810;9.204;2023-11-19T03:20:55;0.50;;;0.50;;
13764;SDS011;6953;48.810;9.204;2023-11-19T03:23:20;0.60;;;0.60;;
13764;SDS011;6953;48.810;9.204;2023-11-19T03:25:45;0.60;;;0.60;;
13764;SDS011;6953;48.810;9.204;2023-11-19T03:28:11;0.50;;;0.50;;
13764;SDS011;6953;48.810;9.204;2023-11-19T03:30:36;0.50;;;0.50;;
13764;SDS011;6953;48.810;9.204;2023-11-19T03:33:02;0.55;;;0.55;;
13764;SDS011;6953;48.810;9.204;2023-11-19T03:35:27;0.52;;;0.52;;
13764;SDS011;6953;48.810;9.204;2023-11-19T03:37:53;0.50;;;0.50;;
13764;SDS011;6953;48.810;9.204;2023-11-19T03:40:18;0.50;;;0.50;;
13764;SDS011;6953;48.810;9.204;2023-11-19T03:42:46;0.50;;;0.50;;
13764;SDS011;6953;48.810;9.204;2023-11-19T03:45:12;0.50;;;0.50;;
13764;SDS011;6953;48.810;9.204;2023-11-19T03:47:37;0.40;;;0.40;;
13764;SDS011;6953;48.810;9.204;2023-11-19T03:50:03;0.50;;;0.50;;
13764;SDS011;6953;48.810;9.204;2023-11-19T03:52:29;0.40;;;0.40;;
13764;SDS011;6953;48.810;9.204;2023-11-19T03:54:55;0.40;;;0.40;;
13764;SDS011;6953;48.810;9.204;2023-11-19T03:57:21;0.50;;;0.50;;
13764;SDS011;6953;48.810;9.204;2023-11-19T03:59:46;0.50;;;0.50;;
13764;SDS011;6953;48.810;9.204;2023-11-19T04:02:12;0.50;;;0.50;;
13764;SDS011;6953;48.810;9.204;2023-11-19T04:04:37;0.50;;;0.50;;
13764;SDS011;6953;48.810;9.204;2023-11-19T04:07:04;0.60;;;0.60;;
13764;SDS011;6953;48.810;9.204;2023-11-19T04:09:30;0.50;;;0.50;;
13764;SDS011;6953;48.810;9.204;2023-11-19T04:11:56;0.52;;;0.52;;
13764;SDS011;6953;48.810;9.204;2023-11-19T04:14:21;0.40;;;0.40;;
13764;SDS011;6953;48.810;9.204;2023-11-19T04:16:47;0.43;;;0.43;;
13764;SDS011;6953;48.810;9.204;2023-11-19T04:19:12;0.50;;;0.50;;
13764;SDS011;6953;48.810;9.204;2023-11-19T04:21:41;0.52;;;0.52;;
13764;SDS011;6953;48.810;9.204;2023-11-19T04:24:08;0.50;;;0.50;;
13764;SDS011;6953;48.810;9.204;2023-11-19T04:26:34;0.60;;;0.60;;
13764;SDS011;6953;48.810;9.204;2023-11-19T04:28:59;0.60;;;0.60;;
13764;SDS011;6953;48.810;9.204;2023-11-19T04:31:28;0.50;;;0.50;;
13764;SDS011;6953;48.810;9.204;2023-11-19T04:33:56;0.50;;;0.50;;
13764;SDS011;6953;48.810;9.204;2023-11-19T04:36:22;0.60;;;0.60;;
13764;SDS011;6953;48.810;9.204;2023-11-19T04:38:49;0.60;;;0.60;;
13764;SDS011;6953;48.810;9.204;2023-11-19T04:41:15;0.40;;;0.40;;
13764;SDS011;6953;48.810;9.204;2023-11-19T04:43:40;0.50;;;0.50;;
13764;SDS011;6953;48.810;9.204;2023-11-19T04:46:06;0.50;;;0.50;;
13764;SDS011;6953;48.810;9.204;2023-11-19T04:48:31;0.50;;;0.50;;
13764;SDS011;6953;48.810;9.204;2023-11-19T04:50:57;0.50;;;0.50;;
13764;SDS011;6953;48.810;9.204;2023-11-19T04:53:22;0.47;;;0.47;;
13764;SDS011;6953;48.810;9.204;2023-11-19T04:55:47;0.60;;;0.60;;
13764;SDS011;6953;48.810;9.204;2023-11-19T04:58:12;0.50;;;0.50;;
13764;SDS011;6953;48.810;9.204;2023-11-19T05:00:38;0.50;;;0.50;;
13764;SDS011;6953;48.810;9.204;2023-11-19T05:03:03;0.50;;;0.50;;
13764;SDS011;6953;48.810;9.204;2023-11-19T05:05:28;0.60;;;0.60;;
13764;SDS011;6953;48.810;9.204;2023-11-19T05:07:54;0.50;;;0.50;;
13764;SDS011;6953;48.810;9.204;2023-11-19T05:10:20;0.50;;;0.50;;
13764;SDS011;6953;48.810;9.204;2023-11-19T05:12:45;0.50;;;0.50;;
13764;SDS011;6953;48.810;9.204;2023-11-19T05:15:10;0.40;;;0.40;;
13764;SDS011;6953;48.810;9.204;2023-11-19T05:17:36;0.50;;;0.50;;
13764;SDS011;6953;48.810;9.204;2023-11-19T05:20:02;0.50;;;0.50;;
13764;SDS011;6953;48.810;9.204;2023-11-19T05:22:28;0.50;;;0.50;;
13764;SDS011;6953;48.810;9.204;2023-11-19T05:24:53;0.40;;;0.40;;
13764;SDS011;6953;48.810;9.204;2023-11-19T05:27:19;0.40;;;0.40;;
13764;SDS011;6953;48.810;9.204;2023-11-19T05:29:44;0.50;;;0.50;;
13764;SDS011;6953;48.810;9.204;2023-11-19T05:32:10;0.55;;;0.55;;
13764;SDS011;6953;48.810;9.204;2023-11-19T05:34:35;0.50;;;0.50;;
13764;SDS011;6953;48.810;9.204;2023-11-19T05:37:00;0.45;;;0.45;;
13764;SDS011;6953;48.810;9.204;2023-11-19T05:39:27;0.50;;;0.50;;
13764;SDS011;6953;48.810;9.204;2023-11-19T05:41:52;0.40;;;0.40;;
13764;SDS011;6953;48.810;9.204;2023-11-19T05:44:18;0.40;;;0.40;;
13764;SDS011;6953;48.810;9.204;2023-11-19T05:46:44;0.50;;;0.50;;
13764;SDS011;6953;48.810;9.204;2023-11-19T05:49:09;0.50;;;0.50;;
13764;SDS011;6953;48.810;9.204;2023-11-19T05:51:39;0.40;;;0.40;;
13764;SDS011;6953;48.810;9.204;2023-11-19T05:54:06;0.40;;;0.40;;
13764;SDS011;6953;48.810;9.204;2023-11-19T05:56:35;0.50;;;0.50;;
13764;SDS011;6953;48.810;9.204;2023-11-19T05:59:00;0.50;;;0.50;;
13764;SDS011;6953;48.810;9.204;2023-11-19T06:01:28;0.40;;;0.40;;
13764;SDS011;6953;48.810;9.204;2023-11-19T06:03:54;0.50;;;0.50;;
13764;SDS011;6953;48.810;9.204;2023-11-19T06:06:19;0.28;;;0.28;;
13764;SDS011;6953;48.810;9.204;2023-11-19T06:08:45;0.50;;;0.50;;
13764;SDS011;6953;48.810;9.204;2023-11-19T06:11:10;0.40;;;0.40;;
13764;SDS011;6953;48.810;9.204;2023-11-19T06:13:44;0.50;;;0.50;;
13764;SDS011;6953;48.810;9.204;2023-11-19T06:16:09;0.50;;;0.50;;
13764;SDS011;6953;48.810;9.204;2023-11-19T06:18:36;0.40;;;0.40;;
13764;SDS011;6953;48.810;9.204;2023-11-19T06:21:02;0.50;;;0.50;;
13764;SDS011;6953;48.810;9.204;2023-11-19T06:23:27;0.47;;;0.47;;
13764;SDS011;6953;48.810;9.204;2023-11-19T06:25:52;0.50;;;0.50;;
13764;SDS011;6953;48.810;9.204;2023-11-19T06:28:18;0.50;;;0.50;;
13764;SDS011;6953;48.810;9.204;2023-11-19T06:30:43;0.40;;;0.40;;
13764;SDS011;6953;48.810;9.204;2023-11-19T06:33:08;0.50;;;0.50;;
13764;SDS011;6953;48.810;9.204;2023-11-19T06:35:34;0.50;;;0.50;;
13764;SDS011;6953;48.810;9.204;2023-11-19T06:38:02;0.50;;;0.50;;
13764;SDS011;6953;48.810;9.204;2023-11-19T06:40:29;0.50;;;0.50;;
13764;SDS011;6953;48.810;9.204;2023-11-19T06:42:55;0.50;;;0.50;;
13764;SDS011;6953;48.810;9.204;2023-11-19T06:45:21;0.50;;;0.50;;
13764;SDS011;6953;48.810;9.204;2023-11-19T06:47:46;0.50;;;0.50;;
13764;SDS011;6953;48.810;9.204;2023-11-19T06:50:12;0.40;;;0.40;;
13764;SDS011;6953;48.810;9.204;2023-11-19T06:52:37;0.40;;;0.40;;
13764;SDS011;6953;48.810;9.204;2023-11-19T06:55:03;0.50;;;0.50;;
13764;SDS011;6953;48.810;9.204;2023-11-19T06:57:29;0.47;;;0.47;;
13764;SDS011;6953;48.810;9.204;2023-11-19T06:59:56;0.50;;;0.50;;
13764;SDS011;6953;48.810;9.204;2023-11-19T07:02:22;0.50;;;0.50;;
13764;SDS011;6953;48.810;9.204;2023-11-19T07:04:47;0.40;;;0.40;;
13764;SDS011;6953;48.810;9.204;2023-11-19T07:07:12;0.50;;;0.50;;
13764;SDS011;6953;48.810;9.204;2023-11-19T07:09:39;0.50;;;0.50;;
13764;SDS011;6953;48.810;9.204;2023-11-19T07:12:05;0.50;;;0.50;;
13764;SDS011;6953;48.810;9.204;2023-11-19T07:14:30;0.40;;;0.40;;
13764;SDS011;6953;48.810;9.204;2023-11-19T07:16:56;0.50;;;0.50;;
13764;SDS011;6953;48.810;9.204;2023-11-19T07:19:21;0.50;;;0.50;;
13764;SDS011;6953;48.810;9.204;2023-11-19T07:21:46;0.50;;;0.50;;
13764;SDS011;6953;48.810;9.204;2023-11-19T07:24:12;0.50;;;0.50;;
13764;SDS011;6953;48.810;9.204;2023-11-19T07:26:44;0.43;;;0.43;;
13764;SDS011;6953;48.810;9.204;2023-11-19T07:29:12;0.38;;;0.38;;
13764;SDS011;6953;48.810;9.204;2023-11-19T07:31:37;0.55;;;0.55;;
13764;SDS011;6953;48.810;9.204;2023-11-19T07:34:02;0.40;;;0.40;;
13764;SDS011;6953;48.810;9.204;2023-11-19T07:36:28;0.50;;;0.50;;
13764;SDS011;6953;48.810;9.204;2023-11-19T07:38:54;0.40;;;0.40;;
13764;SDS011;6953;48.810;9.204;2023-11-19T07:41:22;0.50;;;0.50;;
13764;SDS011;6953;48.810;9.204;2023-11-19T07:43:47;0.40;;;0.40;;
13764;SDS011;6953;48.810;9.204;2023-11-19T07:46:13;0.50;;;0.50;;
13764;SDS011;6953;48.810;9.204;2023-11-19T07:48:39;0.50;;;0.50;;
13764;SDS011;6953;48.810;9.204;2023-11-19T07:51:05;0.50;;;0.50;;
13764;SDS011;6953;48.810;9.204;2023-11-19T07:53:31;0.40;;;0.40;;
13764;SDS011;6953;48.810;9.204;2023-11-19T07:55:57;0.50;;;0.50;;
13764;SDS011;6953;48.810;9.204;2023-11-19T07:58:24;0.40;;;0.40;;
13764;SDS011;6953;48.810;9.204;2023-11-19T08:00:50;0.43;;;0.43;;
13764;SDS011;6953;48.810;9.204;2023-11-19T08:03:15;0.45;;;0.45;;
13764;SDS011;6953;48.810;9.204;2023-11-19T08:05:40;0.50;;;0.50;;
13764;SDS011;6953;48.810;9.204;2023-11-19T08:08:06;0.40;;;0.40;;
13764;SDS011;6953;48.810;9.204;2023-11-19T08:10:32;0.40;;;0.40;;
13764;SDS011;6953;48.810;9.204;2023-11-19T08:12:58;0.50;;;0.50;;
13764;SDS011;6953;48.810;9.204;2023-11-19T08:15:23;0.50;;;0.50;;
13764;SDS011;6953;48.810;9.204;2023-11-19T08:17:49;0.40;;;0.40;;
13764;SDS011;6953;48.810;9.204;2023-11-19T08:20:14;0.40;;;0.40;;
13764;SDS011;6953;48.810;9.204;2023-11-19T08:22:40;0.40;;;0.40;;
13764;SDS011;6953;48.810;9.204;2023-11-19T08:25:05;0.50;;;0.50;;
13764;SDS011;6953;48.810;9.204;2023-11-19T08:27:31;0.40;;;0.40;;
13764;SDS011;6953;48.810;9.204;2023-11-19T08:29:56;0.40;;;0.40;;
13764;SDS011;6953;48.810;9.204;2023-11-19T08:32:25;0.40;;;0.40;;
13764;SDS011;6953;48.810;9.204;2023-11-19T08:34:51;0.40;;;0.40;;
13764;SDS011;6953;48.810;9.204;2023-11-19T08:37:16;0.40;;;0.40;;
13764;SDS011;6953;48.810;9.204;2023-11-19T08:39:47;0.30;;;0.30;;
13764;SDS011;6953;48.810;9.204;2023-11-19T08:42:12;0.30;;;0.30;;
13764;SDS011;6953;48.810;9.204;2023-11-19T08:44:38;0.20;;;0.20;;
13764;SDS011;6953;48.810;9.204;2023-11-19T08:47:03;0.25;;;0.25;;
13764;SDS011;6953;48.810;9.204;2023-11-19T08:49:29;0.30;;;0.30;;
13764;SDS011;6953;48.810;9.204;2023-11-19T08:51:54;0.40;;;0.40;;
13764;SDS011;6953;48.810;9.204;2023-11-19T08:54:19;0.30;;;0.30;;
13764;SDS011;6953;48.810;9.204;2023-11-19T08:56:46;0.40;;;0.40;;
13764;SDS011;6953;48.810;9.204;2023-11-19T08:59:11;0.30;;;0.30;;
13764;SDS011;6953;48.810;9.204;2023-11-19T09:01:37;0.40;;;0.40;;
13764;SDS011;6953;48.810;9.204;2023-11-19T09:04:02;0.40;;;0.40;;
13764;SDS011;6953;48.810;9.204;2023-11-19T09:06:28;0.30;;;0.30;;
13764;SDS011;6953;48.810;9.204;2023-11-19T09:08:53;0.30;;;0.30;;
13764;SDS011;6953;48.810;9.204;2023-11-19T09:11:18;0.30;;;0.30;;
13764;SDS011;6953;48.810;9.204;2023-11-19T09:13:44;0.20;;;0.20;;
13764;SDS011;6953;48.810;9.204;2023-11-19T09:16:11;0.20;;;0.20;;
13764;SDS011;6953;48.810;9.204;2023-11-19T09:18:37;0.30;;;0.30;;
13764;SDS011;6953;48.810;9.204;2023-11-19T09:21:02;0.30;;;0.30;;
13764;SDS011;6953;48.810;9.204;2023-11-19T09:23:28;0.30;;;0.30;;
13764;SDS011;6953;48.810;9.204;2023-11-19T09:25:55;0.50;;;0.50;;
13764;SDS011;6953;48.810;9.204;2023-11-19T09:28:20;0.50;;;0.50;;
13764;SDS011;6953;48.810;9.204;2023-11-19T09:30:46;0.40;;;0.40;;
13764;SDS011;6953;48.810;9.204;2023-11-19T09:33:11;0.50;;;0.50;;
13764;SDS011;6953;48.810;9.204;2023-11-19T09:35:37;0.55;;;0.55;;
13764;SDS011;6953;48.810;9.204;2023-11-19T09:38:02;0.52;;;0.52;;
13764;SDS011;6953;48.810;9.204;2023-11-19T09:40:27;0.60;;;0.60;;
13764;SDS011;6953;48.810;9.204;2023-11-19T09:42:53;0.50;;;0.50;;
13764;SDS011;6953;48.810;9.204;2023-11-19T09:45:20;0.60;;;0.60;;
13764;SDS011;6953;48.810;9.204;2023-11-19T09:47:46;0.50;;;0.50;;
13764;SDS011;6953;48.810;9.204;2023-11-19T09:50:14;0.50;;;0.50;;
13764;SDS011;6953;48.810;9.204;2023-11-19T09:52:41;0.35;;;0.35;;
13764;SDS011;6953;48.810;9.204;2023-11-19T09:55:07;0.40;;;0.40;;
13764;SDS011;6953;48.810;9.204;2023-11-19T09:57:33;0.28;;;0.28;;
13764;SDS011;6953;48.810;9.204;2023-11-19T10:00:02;0.10;;;0.10;;
13764;SDS011;6953;48.810;9.204;2023-11-19T10:02:29;0.10;;;0.10;;
13764;SDS011;6953;48.810;9.204;2023-11-19T10:04:58;0.10;;;0.10;;
13764;SDS011;6953;48.810;9.204;2023-11-19T10:07:27;0.10;;;0.10;;
13764;SDS011;6953;48.810;9.204;2023-11-19T10:09:53;0.10;;;0.10;;
13764;SDS011;6953;48.810;9.204;2023-11-19T10:12:18;0.10;;;0.10;;
13764;SDS011;6953;48.810;9.204;2023-11-19T10:14:44;0.10;;;0.10;;
13764;SDS011;6953;48.810;9.204;2023-11-19T10:17:10;0.20;;;0.20;;
13764;SDS011;6953;48.810;9.204;2023-11-19T10:19:35;0.10;;;0.10;;
13764;SDS011;6953;48.810;9.204;2023-11-19T10:22:04;0.17;;;0.17;;
13764;SDS011;6953;48.810;9.204;2023-11-19T10:24:33;0.10;;;0.10;;
13764;SDS011;6953;48.810;9.204;2023-11-19T10:26:59;0.10;;;0.10;;
13764;SDS011;6953;48.810;9.204;2023-11-19T10:29:26;0.10;;;0.10;;
13764;SDS011;6953;48.810;9.204;2023-11-19T10:31:57;0.20;;;0.20;;
13764;SDS011;6953;48.810;9.204;2023-11-19T10:34:26;0.20;;;0.20;;
13764;SDS011;6953;48.810;9.204;2023-11-19T10:36:52;0.10;;;0.10;;
13764;SDS011;6953;48.810;9.204;2023-11-19T10:39:18;0.20;;;0.20;;
13764;SDS011;6953;48.810;9.204;2023-11-19T10:41:45;0.20;;;0.20;;
13764;SDS011;6953;48.810;9.204;2023-11-19T10:44:11;0.20;;;0.20;;
13764;SDS011;6953;48.810;9.204;2023-11-19T10:46:38;0.20;;;0.20;;
13764;SDS011;6953;48.810;9.204;2023-11-19T10:49:05;0.10;;;0.10;;
13764;SDS011;6953;48.810;9.204;2023-11-19T10:51:31;0.10;;;0.10;;
13764;SDS011;6953;48.810;9.204;2023-11-19T10:53:58;0.10;;;0.10;;
13764;SDS011;6953;48.810;9.204;2023-11-19T10:56:32;0.10;;;0.10;;
13764;SDS011;6953;48.810;9.204;2023-11-19T10:58:59;0.20;;;0.20;;
13764;SDS011;6953;48.810;9.204;2023-11-19T11:01:26;0.10;;;0.10;;
13764;SDS011;6953;48.810;9.204;2023-11-19T11:03:58;0.10;;;0.10;;
13764;SDS011;6953;48.810;9.204;2023-11-19T11:06:25;0.10;;;0.10;;
13764;SDS011;6953;48.810;9.204;2023-11-19T11:08:52;0.20;;;0.20;;
13764;SDS011;6953;48.810;9.204;2023-11-19T11:11:19;0.20;;;0.20;;
13764;SDS011;6953;48.810;9.204;2023-11-19T11:13:49;0.20;;;0.20;;
13764;SDS011;6953;48.810;9.204;2023-11-19T11:16:18;0.20;;;0.20;;
13764;SDS011;6953;48.810;9.204;2023-11-19T11:18:44;0.20;;;0.20;;
13764;SDS011;6953;48.810;9.204;2023-11-19T11:21:36;0.20;;;0.20;;
13764;SDS011;6953;48.810;9.204;2023-11-19T11:27:55;0.13;;;0.13;;
13764;SDS011;6953;48.810;9.204;2023-11-19T11:31:06;0.20;;;0.20;;
13764;SDS011;6953;48.810;9.204;2023-11-19T11:40:25;0.20;;;0.20;;
13764;SDS011;6953;48.810;9.204;2023-11-19T11:49:31;0.10;;;0.10;;
13764;SDS011;6953;48.810;9.204;2023-11-19T11:52:22;0.03;;;0.03;;
13764;SDS011;6953;48.810;9.204;2023-11-19T11:55:13;0.10;;;0.10;;
13764;SDS011;6953;48.810;9.204;2023-11-19T11:58:07;0.20;;;0.20;;
13764;SDS011;6953;48.810;9.204;2023-11-19T12:00:58;0.20;;;0.20;;
13764;SDS011;6953;48.810;9.204;2023-11-19T12:03:51;0.20;;;0.20;;
13764;SDS011;6953;48.810;9.204;2023-11-19T12:14:03;0.20;;;0.20;;
13764;SDS011;6953;48.810;9.204;2023-11-19T12:16:31;0.20;;;0.20;;
13764;SDS011;6953;48.810;9.204;2023-11-19T12:19:02;0.10;;;0.10;;
13764;SDS011;6953;48.810;9.204;2023-11-19T12:21:30;0.10;;;0.10;;
13764;SDS011;6953;48.810;9.204;2023-11-19T12:23:57;0.13;;;0.13;;
13764;SDS011;6953;48.810;9.204;2023-11-19T12:26:35;0.20;;;0.20;;
13764;SDS011;6953;48.810;9.204;2023-11-19T12:29:05;0.17;;;0.17;;
13764;SDS011;6953;48.810;9.204;2023-11-19T12:31:31;0.10;;;0.10;;
13764;SDS011;6953;48.810;9.204;2023-11-19T12:33:56;0.10;;;0.10;;
13764;SDS011;6953;48.810;9.204;2023-11-19T12:36:22;0.10;;;0.10;;
13764;SDS011;6953;48.810;9.204;2023-11-19T12:38:47;0.15;;;0.15;;
13764;SDS011;6953;48.810;9.204;2023-11-19T12:41:13;0.10;;;0.10;;
13764;SDS011;6953;48.810;9.204;2023-11-19T12:43:42;0.10;;;0.10;;
13764;SDS011;6953;48.810;9.204;2023-11-19T12:46:18;0.10;;;0.10;;
13764;SDS011;6953;48.810;9.204;2023-11-19T12:48:46;0.10;;;0.10;;
13764;SDS011;6953;48.810;9.204;2023-11-19T12:51:13;0.10;;;0.10;;
13764;SDS011;6953;48.810;9.204;2023-11-19T12:53:51;0.10;;;0.10;;
13764;SDS011;6953;48.810;9.204;2023-11-19T12:56:20;0.10;;;0.10;;
13764;SDS011;6953;48.810;9.204;2023-11-19T12:58:46;0.10;;;0.10;;
13764;SDS011;6953;48.810;9.204;2023-11-19T13:01:15;0.10;;;0.10;;
13764;SDS011;6953;48.810;9.204;2023-11-19T13:03:42;0.10;;;0.10;;
13764;SDS011;6953;48.810;9.204;2023-11-19T13:06:09;0.10;;;0.10;;
13764;SDS011;6953;48.810;9.204;2023-11-19T13:08:38;0.10;;;0.10;;
13764;SDS011;6953;48.810;9.204;2023-11-19T13:11:05;0.20;;;0.20;;
13764;SDS011;6953;48.810;9.204;2023-11-19T13:13:31;0.10;;;0.10;;
13764;SDS011;6953;48.810;9.204;2023-11-19T13:16:03;0.10;;;0.10;;
13764;SDS011;6953;48.810;9.204;2023-11-19T13:18:33;0.10;;;0.10;;
13764;SDS011;6953;48.810;9.204;2023-11-19T13:20:59;0.10;;;0.10;;
13764;SDS011;6953;48.810;9.204;2023-11-19T13:23:25;0.10;;;0.10;;
13764;SDS011;6953;48.810;9.204;2023-11-19T13:25:50;0.10;;;0.10;;
13764;SDS011;6953;48.810;9.204;2023-11-19T13:28:15;0.17;;;0.17;;
13764;SDS011;6953;48.810;9.204;2023-11-19T13:30:43;0.20;;;0.20;;
13764;SDS011;6953;48.810;9.204;2023-11-19T13:33:09;0.20;;;0.20;;
13764;SDS011;6953;48.810;9.204;2023-11-19T13:35:37;0.20;;;0.20;;
13764;SDS011;6953;48.810;9.204;2023-11-19T13:38:05;0.20;;;0.20;;
13764;SDS011;6953;48.810;9.204;2023-11-19T13:40:30;0.20;;;0.20;;
13764;SDS011;6953;48.810;9.204;2023-11-19T13:42:55;0.20;;;0.20;;
13764;SDS011;6953;48.810;9.204;2023-11-19T13:45:20;0.20;;;0.20;;
13764;SDS011;6953;48.810;9.204;2023-11-19T13:47:46;0.20;;;0.20;;
13764;SDS011;6953;48.810;9.204;2023-11-19T13:50:15;0.25;;;0.25;;
13764;SDS011;6953;48.810;9.204;2023-11-19T13:52:42;0.20;;;0.20;;
13764;SDS011;6953;48.810;9.204;2023-11-19T13:55:11;0.20;;;0.20;;
13764;SDS011;6953;48.810;9.204;2023-11-19T13:57:37;0.20;;;0.20;;
13764;SDS011;6953;48.810;9.204;2023-11-19T14:00:03;0.20;;;0.20;;
13764;SDS011;6953;48.810;9.204;2023-11-19T14:02:31;0.30;;;0.30;;
13764;SDS011;6953;48.810;9.204;2023-11-19T14:04:56;0.30;;;0.30;;
13764;SDS011;6953;48.810;9.204;2023-11-19T14:07:22;0.20;;;0.20;;
13764;SDS011;6953;48.810;9.204;2023-11-19T14:09:47;0.20;;;0.20;;
13764;SDS011;6953;48.810;9.204;2023-11-19T14:12:13;0.30;;;0.30;;
13764;SDS011;6953;48.810;9.204;2023-11-19T14:14:38;0.30;;;0.30;;
13764;SDS011;6953;48.810;9.204;2023-11-19T14:17:04;0.20;;;0.20;;
13764;SDS011;6953;48.810;9.204;2023-11-19T14:19:30;0.20;;;0.20;;
13764;SDS011;6953;48.810;9.204;2023-11-19T14:21:55;0.20;;;0.20;;
13764;SDS011;6953;48.810;9.204;2023-11-19T14:24:20;0.20;;;0.20;;
13764;SDS011;6953;48.810;9.204;2023-11-19T14:26:46;0.30;;;0.30;;
13764;SDS011;6953;48.810;9.204;2023-11-19T14:29:12;0.20;;;0.20;;
13764;SDS011;6953;48.810;9.204;2023-11-19T14:31:37;0.30;;;0.30;;
13764;SDS011;6953;48.810;9.204;2023-11-19T14:34:04;0.30;;;0.30;;
13764;SDS011;6953;48.810;9.204;2023-11-19T14:36:30;0.30;;;0.30;;
13764;SDS011;6953;48.810;9.204;2023-11-19T14:38:55;0.22;;;0.22;;
13764;SDS011;6953;48.810;9.204;2023-11-19T14:41:20;0.30;;;0.30;;
13764;SDS011;6953;48.810;9.204;2023-11-19T14:43:46;0.22;;;0.22;;
13764;SDS011;6953;48.810;9.204;2023-11-19T14:46:12;0.30;;;0.30;;
13764;SDS011;6953;48.810;9.204;2023-11-19T14:48:37;0.30;;;0.30;;
13764;SDS011;6953;48.810;9.204;2023-11-19T14:51:02;0.22;;;0.22;;
13764;SDS011;6953;48.810;9.204;2023-11-19T14:53:28;0.30;;;0.30;;
13764;SDS011;6953;48.810;9.204;2023-11-19T14:55:53;0.40;;;0.40;;
13764;SDS011;6953;48.810;9.204;2023-11-19T14:58:19;0.30;;;0.30;;
13764;SDS011;6953;48.810;9.204;2023-11-19T15:00:45;0.30;;;0.30;;
13764;SDS011;6953;48.810;9.204;2023-11-19T15:03:10;0.30;;;0.30;;
13764;SDS011;6953;48.810;9.204;2023-11-19T15:05:36;0.30;;;0.30;;
13764;SDS011;6953;48.810;9.204;2023-11-19T15:08:01;0.30;;;0.30;;
13764;SDS011;6953;48.810;9.204;2023-11-19T15:10:28;0.30;;;0.30;;
13764;SDS011;6953;48.810;9.204;2023-11-19T15:12:53;0.30;;;0.30;;
13764;SDS011;6953;48.810;9.204;2023-11-19T15:15:21;0.30;;;0.30;;
13764;SDS011;6953;48.810;9.204;2023-11-19T15:17:47;0.30;;;0.30;;
13764;SDS011;6953;48.810;9.204;2023-11-19T15:20:12;0.20;;;0.20;;
13764;SDS011;6953;48.810;9.204;2023-11-19T15:22:40;0.30;;;0.30;;
13764;SDS011;6953;48.810;9.204;2023-11-19T15:25:06;0.30;;;0.30;;